createdAt,value
2018-12-18T00:00:42.033Z,1.40
2018-12-18T00:03:09.570Z,1.40
2018-12-18T00:05:37.036Z,1.60
2018-12-18T00:08:04.596Z,1.70
2018-12-18T00:10:37.794Z,1.70
2018-12-18T00:13:05.408Z,1.70
2018-12-18T00:15:32.896Z,1.70
2018-12-18T00:18:00.360Z,1.50
2018-12-18T00:20:27.831Z,1.60
2018-12-18T00:22:55.286Z,1.50
2018-12-18T00:25:22.838Z,1.30
2018-12-18T00:27:50.306Z,1.50
2018-12-18T00:30:17.771Z,1.70
2018-12-18T00:32:45.241Z,1.80
2018-12-18T00:35:12.805Z,1.90
2018-12-18T00:37:40.274Z,2.00
2018-12-18T00:40:07.841Z,1.90
2018-12-18T00:42:35.355Z,1.90
2018-12-18T00:45:02.911Z,1.90
2018-12-18T00:47:30.378Z,2.00
2018-12-18T00:49:57.839Z,2.00
2018-12-18T00:52:25.357Z,2.20
2018-12-18T00:54:52.815Z,2.30
2018-12-18T00:57:20.282Z,2.30
2018-12-18T00:59:47.738Z,2.40
2018-12-18T01:02:15.219Z,2.40
2018-12-18T01:04:42.687Z,2.20
2018-12-18T01:07:10.155Z,2.30
2018-12-18T01:09:37.619Z,2.30
2018-12-18T01:12:05.099Z,2.40
2018-12-18T01:14:32.566Z,2.40
2018-12-18T01:17:00.044Z,2.30
2018-12-18T01:19:27.506Z,2.30
2018-12-18T01:21:55.003Z,2.20
2018-12-18T01:24:22.472Z,2.30
2018-12-18T01:26:50.169Z,2.20
2018-12-18T01:29:17.631Z,2.20
2018-12-18T01:31:45.106Z,2.00
2018-12-18T01:34:12.579Z,2.10
2018-12-18T01:36:40.074Z,2.20
2018-12-18T01:39:07.551Z,2.10
2018-12-18T01:41:35.155Z,2.20
2018-12-18T01:44:02.680Z,2.20
2018-12-18T01:46:30.145Z,2.20
2018-12-18T01:48:57.611Z,2.10
2018-12-18T01:51:25.079Z,2.20
2018-12-18T01:53:52.596Z,2.00
2018-12-18T01:56:20.095Z,2.20
2018-12-18T01:58:47.583Z,2.30
2018-12-18T02:01:15.104Z,2.40
2018-12-18T02:03:42.568Z,2.30
2018-12-18T02:06:10.071Z,2.40
2018-12-18T02:08:37.554Z,2.50
2018-12-18T02:11:05.109Z,2.60
2018-12-18T02:13:32.580Z,2.40
2018-12-18T02:16:00.049Z,2.40
2018-12-18T02:18:27.522Z,2.50
2018-12-18T02:20:54.978Z,2.60
2018-12-18T02:23:22.454Z,2.70
2018-12-18T02:25:49.915Z,2.70
2018-12-18T02:28:17.380Z,2.60
2018-12-18T02:30:44.863Z,2.60
2018-12-18T02:33:12.339Z,2.30
2018-12-18T02:35:39.815Z,2.20
2018-12-18T02:38:07.328Z,2.30
2018-12-18T02:40:34.795Z,2.40
2018-12-18T02:43:02.260Z,2.30
2018-12-18T02:45:29.819Z,2.40
2018-12-18T02:47:57.287Z,2.10
2018-12-18T02:50:24.751Z,2.10
2018-12-18T02:52:52.234Z,1.90
2018-12-18T02:55:19.741Z,1.90
2018-12-18T02:57:47.242Z,1.80
2018-12-18T03:00:14.755Z,2.10
2018-12-18T03:02:42.213Z,2.20
2018-12-18T03:05:09.726Z,2.30
2018-12-18T03:07:37.189Z,2.40
2018-12-18T03:10:05.336Z,2.30
2018-12-18T03:12:32.832Z,2.40
2018-12-18T03:15:00.299Z,2.20
2018-12-18T03:17:27.810Z,2.30
2018-12-18T03:19:55.276Z,2.30
2018-12-18T03:22:22.748Z,2.40
2018-12-18T03:24:50.202Z,2.30
2018-12-18T03:27:17.663Z,2.40
2018-12-18T03:29:45.129Z,2.40
2018-12-18T03:32:13.228Z,2.60
2018-12-18T03:34:40.839Z,2.40
2018-12-18T03:37:08.303Z,2.40
2018-12-18T03:39:35.913Z,2.70
2018-12-18T03:42:03.432Z,2.50
2018-12-18T03:44:31.007Z,2.20
2018-12-18T03:46:58.521Z,2.30
2018-12-18T03:49:25.975Z,2.50
2018-12-18T03:51:53.447Z,2.50
2018-12-18T03:54:21.062Z,2.60
2018-12-18T03:56:48.566Z,2.60
2018-12-18T03:59:16.134Z,2.70
2018-12-18T04:01:43.698Z,2.60
2018-12-18T04:04:11.160Z,2.40
2018-12-18T04:06:38.641Z,2.50
2018-12-18T04:09:06.260Z,2.60
2018-12-18T04:11:35.698Z,2.70
2018-12-18T04:14:03.177Z,2.80
2018-12-18T04:16:30.655Z,2.80
2018-12-18T04:18:58.325Z,2.90
2018-12-18T04:21:25.803Z,2.70
2018-12-18T04:23:53.284Z,2.70
2018-12-18T04:26:20.753Z,2.90
2018-12-18T04:28:48.305Z,2.90
2018-12-18T04:31:15.779Z,2.80
2018-12-18T04:33:43.235Z,2.80
2018-12-18T04:36:10.704Z,2.80
2018-12-18T04:38:38.172Z,2.90
2018-12-18T04:41:05.641Z,2.50
2018-12-18T04:43:33.118Z,2.30
2018-12-18T04:46:00.577Z,2.50
2018-12-18T04:48:28.043Z,2.70
2018-12-18T04:50:55.509Z,2.90
2018-12-18T04:53:23.018Z,3.00
2018-12-18T04:55:50.483Z,3.10
2018-12-18T04:58:17.999Z,3.10
2018-12-18T05:00:45.526Z,3.30
2018-12-18T05:03:12.987Z,3.30
2018-12-18T05:05:40.478Z,3.30
2018-12-18T05:08:07.937Z,3.30
2018-12-18T05:10:35.467Z,3.40
2018-12-18T05:13:02.964Z,3.30
2018-12-18T05:15:30.486Z,3.20
2018-12-18T05:17:58.058Z,3.30
2018-12-18T05:20:25.518Z,3.40
2018-12-18T05:22:52.989Z,3.40
2018-12-18T05:25:20.450Z,3.40
2018-12-18T05:27:47.986Z,3.60
2018-12-18T05:30:15.471Z,3.60
2018-12-18T05:32:42.937Z,3.40
2018-12-18T05:35:10.399Z,3.40
2018-12-18T05:37:37.864Z,3.50
2018-12-18T05:40:05.672Z,3.50
2018-12-18T05:42:33.261Z,3.60
2018-12-18T05:45:00.723Z,3.60
2018-12-18T05:47:28.192Z,3.50
2018-12-18T05:49:55.671Z,3.40
2018-12-18T05:52:23.137Z,3.50
2018-12-18T05:54:50.628Z,3.50
2018-12-18T05:57:18.126Z,3.50
2018-12-18T05:59:45.588Z,3.60
2018-12-18T06:02:13.087Z,3.50
2018-12-18T06:04:40.546Z,3.30
2018-12-18T06:07:08.004Z,3.40
2018-12-18T06:09:35.464Z,3.20
2018-12-18T06:12:02.955Z,3.10
2018-12-18T06:14:30.409Z,3.10
2018-12-18T06:16:57.872Z,3.00
2018-12-18T06:19:25.337Z,3.10
2018-12-18T06:21:52.800Z,3.30
2018-12-18T06:24:20.287Z,3.30
2018-12-18T06:26:47.753Z,3.40
2018-12-18T06:29:15.223Z,3.40
2018-12-18T06:31:42.698Z,3.50
2018-12-18T06:34:10.154Z,3.50
2018-12-18T06:36:37.620Z,3.70
2018-12-18T06:39:06.242Z,3.70
2018-12-18T06:41:33.711Z,3.70
2018-12-18T06:44:01.210Z,3.90
2018-12-18T06:46:28.662Z,3.90
2018-12-18T06:48:56.163Z,4.00
2018-12-18T06:51:23.644Z,3.70
2018-12-18T06:53:51.109Z,3.70
2018-12-18T06:56:18.571Z,3.70
2018-12-18T06:58:46.030Z,3.70
2018-12-18T07:01:13.509Z,3.70
2018-12-18T07:03:40.965Z,3.50
2018-12-18T07:06:08.431Z,3.70
2018-12-18T07:08:35.894Z,3.60
2018-12-18T07:11:03.418Z,3.60
2018-12-18T07:13:30.891Z,3.40
2018-12-18T07:15:58.391Z,3.00
2018-12-18T07:18:25.850Z,2.70
2018-12-18T07:20:53.316Z,2.50
2018-12-18T07:23:20.791Z,2.60
2018-12-18T07:25:48.257Z,2.60
2018-12-18T07:28:15.728Z,2.70
2018-12-18T07:30:43.182Z,2.80
2018-12-18T07:33:10.683Z,2.60
2018-12-18T07:35:38.157Z,2.50
2018-12-18T07:38:05.626Z,2.50
2018-12-18T07:40:33.126Z,2.40
2018-12-18T07:43:00.594Z,2.60
2018-12-18T07:45:28.065Z,2.20
2018-12-18T07:47:55.530Z,2.30
2018-12-18T07:50:23.035Z,2.40
2018-12-18T07:52:50.496Z,2.60
2018-12-18T07:55:18.020Z,2.70
2018-12-18T07:57:45.494Z,2.70
2018-12-18T08:00:13.027Z,2.80
2018-12-18T08:02:40.489Z,2.90
2018-12-18T08:05:07.985Z,2.50
2018-12-18T08:07:35.447Z,2.30
2018-12-18T08:10:03.382Z,2.50
2018-12-18T08:12:30.839Z,2.70
2018-12-18T08:14:58.341Z,2.80
2018-12-18T08:17:25.803Z,2.70
2018-12-18T08:19:53.262Z,2.80
2018-12-18T08:22:20.787Z,3.00
2018-12-18T08:24:48.322Z,3.10
2018-12-18T08:27:15.795Z,2.90
2018-12-18T08:29:43.261Z,3.10
2018-12-18T08:32:10.763Z,3.30
2018-12-18T08:34:38.213Z,3.40
2018-12-18T08:37:05.751Z,3.30
2018-12-18T08:39:33.254Z,3.40
2018-12-18T08:42:00.741Z,3.50
2018-12-18T08:44:28.225Z,3.50
2018-12-18T08:46:55.697Z,3.60
2018-12-18T08:49:23.166Z,3.50
2018-12-18T08:51:50.632Z,3.20
2018-12-18T08:54:18.094Z,3.30
2018-12-18T08:56:45.570Z,3.30
2018-12-18T08:59:13.035Z,3.50
2018-12-18T09:01:40.519Z,3.60
2018-12-18T09:04:08.000Z,3.80
2018-12-18T09:06:35.495Z,4.00
2018-12-18T09:09:04.929Z,4.20
2018-12-18T09:11:32.403Z,4.40
2018-12-18T09:13:59.890Z,4.50
2018-12-18T09:16:32.975Z,4.70
2018-12-18T09:19:00.427Z,5.20
2018-12-18T09:21:27.951Z,5.50
2018-12-18T09:23:55.471Z,5.60
2018-12-18T09:26:22.935Z,5.90
2018-12-18T09:28:50.390Z,6.10
2018-12-18T09:31:17.903Z,6.30
2018-12-18T09:33:45.363Z,6.40
2018-12-18T09:36:12.820Z,6.50
2018-12-18T09:38:45.948Z,6.20
2018-12-18T09:41:19.115Z,5.90
2018-12-18T09:43:52.414Z,6.20
2018-12-18T09:46:19.863Z,6.20
2018-12-18T09:48:47.327Z,6.30
2018-12-18T09:51:14.813Z,6.20
2018-12-18T09:53:42.270Z,6.30
2018-12-18T09:56:09.730Z,6.20
2018-12-18T09:58:37.226Z,6.20
2018-12-18T10:01:04.751Z,6.30
2018-12-18T10:03:33.618Z,6.20
2018-12-18T10:06:01.374Z,6.20
2018-12-18T10:08:28.855Z,6.10
2018-12-18T10:10:56.303Z,6.20
2018-12-18T10:13:23.859Z,6.10
2018-12-18T10:15:51.359Z,6.00
2018-12-18T10:18:18.802Z,6.30
2018-12-18T10:20:46.315Z,6.50
2018-12-18T10:23:13.851Z,6.50
2018-12-18T10:25:41.312Z,6.40
2018-12-18T10:28:08.758Z,6.10
2018-12-18T10:30:36.226Z,6.00
2018-12-18T10:33:03.738Z,5.80
2018-12-18T10:35:36.513Z,5.80
2018-12-18T10:38:00.715Z,6.00
2018-12-18T10:40:28.183Z,6.00
2018-12-18T10:42:55.661Z,6.10
2018-12-18T10:45:23.236Z,6.20
2018-12-18T10:47:50.700Z,6.10
2018-12-18T10:50:18.241Z,6.10
2018-12-18T10:52:45.687Z,6.30
2018-12-18T10:55:13.150Z,6.60
2018-12-18T10:57:40.674Z,6.30
2018-12-18T11:00:11.726Z,6.50
2018-12-18T11:02:39.191Z,6.60
2018-12-18T11:05:06.696Z,6.80
2018-12-18T11:07:34.142Z,6.60
2018-12-18T11:10:01.601Z,6.20
2018-12-18T11:12:34.899Z,6.20
2018-12-18T11:15:02.427Z,6.20
2018-12-18T11:17:29.878Z,6.30
2018-12-18T11:19:57.337Z,6.20
2018-12-18T11:22:24.815Z,6.30
2018-12-18T11:24:52.287Z,6.30
2018-12-18T11:27:19.761Z,6.30
2018-12-18T11:29:47.231Z,6.60
2018-12-18T11:32:14.691Z,6.50
2018-12-18T11:34:42.150Z,6.80
2018-12-18T11:37:09.639Z,7.00
2018-12-18T11:39:37.178Z,7.00
2018-12-18T11:42:04.682Z,6.80
2018-12-18T11:44:32.144Z,6.90
2018-12-18T11:46:59.627Z,6.70
2018-12-18T11:49:27.078Z,6.60
2018-12-18T11:51:54.543Z,6.50
2018-12-18T11:54:22.195Z,6.50
2018-12-18T11:56:49.711Z,6.60
2018-12-18T11:59:17.226Z,6.70
2018-12-18T12:01:44.710Z,6.90
2018-12-18T12:04:12.160Z,6.70
2018-12-18T12:06:39.616Z,6.90
2018-12-18T12:09:07.142Z,6.90
2018-12-18T12:11:34.604Z,7.10
2018-12-18T12:14:02.182Z,7.10
2018-12-18T12:16:29.686Z,7.00
2018-12-18T12:18:57.210Z,7.00
2018-12-18T12:21:24.658Z,7.00
2018-12-18T12:23:52.114Z,7.30
2018-12-18T12:26:34.174Z,7.30
2018-12-18T12:29:01.662Z,7.30
2018-12-18T12:31:29.240Z,7.30
2018-12-18T12:33:56.734Z,7.40
2018-12-18T12:36:29.576Z,7.30
2018-12-18T12:38:53.671Z,7.10
2018-12-18T12:41:21.138Z,7.10
2018-12-18T12:43:48.596Z,7.20
2018-12-18T12:46:16.059Z,7.30
2018-12-18T12:48:49.273Z,7.40
2018-12-18T12:51:16.714Z,7.30
2018-12-18T12:53:44.179Z,7.10
2018-12-18T12:56:11.634Z,7.10
2018-12-18T12:58:39.199Z,7.00
2018-12-18T13:01:06.679Z,7.20
2018-12-18T13:03:34.152Z,7.10
2018-12-18T13:06:01.637Z,7.10
2018-12-18T13:08:29.144Z,7.20
2018-12-18T13:10:56.624Z,7.10
2018-12-18T13:13:24.091Z,7.00
2018-12-18T13:15:51.549Z,7.10
2018-12-18T13:18:19.002Z,7.00
2018-12-18T13:20:46.453Z,6.80
2018-12-18T13:23:13.916Z,7.00
2018-12-18T13:25:41.395Z,7.00
2018-12-18T13:28:08.880Z,6.80
2018-12-18T13:30:36.339Z,7.10
2018-12-18T13:33:03.811Z,6.90
2018-12-18T13:35:31.267Z,6.80
2018-12-18T13:37:58.731Z,6.80
2018-12-18T13:40:26.185Z,6.90
2018-12-18T13:42:53.638Z,6.80
2018-12-18T13:45:21.094Z,6.90
2018-12-18T13:47:48.537Z,6.90
2018-12-18T13:50:15.997Z,6.70
2018-12-18T13:52:43.497Z,6.70
2018-12-18T13:55:11.898Z,6.80
2018-12-18T13:57:39.359Z,6.60
2018-12-18T14:00:07.082Z,6.50
2018-12-18T14:02:34.590Z,6.50
2018-12-18T14:05:02.082Z,6.40
2018-12-18T14:07:29.562Z,6.30
2018-12-18T14:09:57.254Z,6.30
2018-12-18T14:12:24.701Z,6.20
2018-12-18T14:14:53.161Z,6.30
2018-12-18T14:17:20.630Z,6.20
2018-12-18T14:19:48.086Z,6.10
2018-12-18T14:22:15.570Z,6.00
2018-12-18T14:24:43.037Z,6.00
2018-12-18T14:27:10.481Z,5.90
2018-12-18T14:29:37.939Z,5.90
2018-12-18T14:32:05.404Z,5.80
2018-12-18T14:34:32.857Z,5.80
2018-12-18T14:37:00.344Z,5.70
2018-12-18T14:39:27.814Z,5.70
2018-12-18T14:41:55.294Z,5.70
2018-12-18T14:44:22.757Z,5.70
2018-12-18T14:46:50.222Z,5.60
2018-12-18T14:49:17.675Z,5.60
2018-12-18T14:51:45.152Z,5.60
2018-12-18T14:54:12.857Z,5.50
2018-12-18T14:56:40.313Z,5.50
2018-12-18T14:59:07.765Z,5.40
2018-12-18T15:01:35.221Z,5.30
2018-12-18T15:04:02.748Z,5.20
2018-12-18T15:06:30.196Z,5.10
2018-12-18T15:08:57.655Z,5.10
2018-12-18T15:11:25.116Z,5.00
2018-12-18T15:13:52.579Z,4.90
2018-12-18T15:16:20.060Z,4.80
2018-12-18T15:18:47.524Z,4.80
2018-12-18T15:21:15.010Z,4.70
2018-12-18T15:23:42.498Z,4.60
2018-12-18T15:26:09.960Z,4.60
2018-12-18T15:28:37.422Z,4.80
2018-12-18T15:31:04.969Z,4.70
2018-12-18T15:33:32.601Z,4.60
2018-12-18T15:36:00.413Z,4.50
2018-12-18T15:38:27.871Z,4.60
2018-12-18T15:40:55.357Z,4.70
2018-12-18T15:43:22.847Z,4.90
2018-12-18T15:45:50.302Z,4.60
2018-12-18T15:48:17.778Z,4.70
2018-12-18T15:50:45.253Z,4.50
2018-12-18T15:53:12.718Z,4.70
2018-12-18T15:55:40.223Z,4.70
2018-12-18T15:58:07.737Z,4.40
2018-12-18T16:00:35.224Z,3.80
2018-12-18T16:03:02.727Z,3.70
2018-12-18T16:05:30.214Z,3.70
2018-12-18T16:07:57.680Z,3.60
2018-12-18T16:10:25.129Z,3.90
2018-12-18T16:12:52.600Z,4.10
2018-12-18T16:15:20.049Z,4.30
2018-12-18T16:17:47.506Z,4.30
2018-12-18T16:20:15.020Z,4.40
2018-12-18T16:22:42.496Z,4.30
2018-12-18T16:25:09.982Z,4.00
2018-12-18T16:27:37.475Z,3.60
2018-12-18T16:30:05.697Z,3.50
2018-12-18T16:32:33.146Z,3.30
2018-12-18T16:35:00.606Z,3.30
2018-12-18T16:37:28.066Z,2.80
2018-12-18T16:39:55.538Z,2.70
2018-12-18T16:42:22.995Z,2.80
2018-12-18T16:44:50.455Z,2.90
2018-12-18T16:47:17.942Z,2.70
2018-12-18T16:49:45.398Z,2.90
2018-12-18T16:52:12.868Z,3.00
2018-12-18T16:54:40.410Z,3.10
2018-12-18T16:57:13.216Z,3.00
2018-12-18T16:59:37.377Z,3.00
2018-12-18T17:02:04.847Z,3.10
2018-12-18T17:04:32.301Z,2.90
2018-12-18T17:06:59.756Z,2.50
2018-12-18T17:09:28.223Z,2.20
2018-12-18T17:11:55.675Z,2.00
2018-12-18T17:14:23.310Z,2.00
2018-12-18T17:16:50.767Z,2.10
2018-12-18T17:19:18.874Z,2.10
2018-12-18T17:21:46.604Z,2.20
2018-12-18T17:24:14.088Z,2.20
2018-12-18T17:26:41.571Z,2.20
2018-12-18T17:29:09.019Z,2.30
2018-12-18T17:31:36.536Z,2.30
2018-12-18T17:34:04.032Z,2.40
2018-12-18T17:36:31.494Z,2.40
2018-12-18T17:38:58.956Z,2.40
2018-12-18T17:41:26.432Z,2.30
2018-12-18T17:46:39.143Z,2.50
2018-12-18T17:49:06.595Z,2.60
2018-12-18T17:51:34.064Z,2.60
2018-12-18T17:54:01.523Z,2.60
2018-12-18T17:56:30.008Z,2.60
2018-12-18T17:58:57.467Z,2.50
2018-12-18T18:01:24.967Z,2.40
2018-12-18T18:03:52.426Z,2.30
2018-12-18T18:06:19.938Z,2.30
2018-12-18T18:08:47.415Z,2.10
2018-12-18T18:11:14.879Z,2.10
2018-12-18T18:13:42.378Z,2.00
2018-12-18T18:16:09.866Z,1.90
2018-12-18T18:18:37.356Z,1.90
2018-12-18T18:21:04.819Z,1.90
2018-12-18T18:23:32.292Z,1.90
2018-12-18T18:26:00.031Z,1.90
2018-12-18T18:28:27.483Z,1.90
2018-12-18T18:30:54.958Z,1.90
2018-12-18T18:33:22.423Z,2.00
2018-12-18T18:35:49.882Z,2.00
2018-12-18T18:38:17.363Z,2.00
2018-12-18T18:40:44.859Z,2.00
2018-12-18T18:43:12.339Z,2.10
2018-12-18T18:45:39.808Z,2.10
2018-12-18T18:48:07.270Z,2.10
2018-12-18T18:50:34.743Z,2.20
2018-12-18T18:53:02.198Z,2.10
2018-12-18T18:55:29.670Z,2.10
2018-12-18T18:57:57.131Z,2.10
2018-12-18T19:00:24.591Z,2.10
2018-12-18T19:02:52.068Z,2.20
2018-12-18T19:05:19.536Z,2.20
2018-12-18T19:07:47.007Z,2.30
2018-12-18T19:10:14.473Z,2.20
2018-12-18T19:12:41.941Z,2.20
2018-12-18T19:15:09.411Z,2.20
2018-12-18T19:17:36.901Z,2.30
2018-12-18T19:20:05.157Z,2.30
2018-12-18T19:22:32.641Z,2.20
2018-12-18T19:25:00.104Z,2.30
2018-12-18T19:27:27.575Z,2.30
2018-12-18T19:29:55.054Z,2.30
2018-12-18T19:32:22.520Z,2.30
2018-12-18T19:34:49.984Z,2.30
2018-12-18T19:37:17.465Z,2.30
2018-12-18T19:39:44.976Z,2.30
2018-12-18T19:42:12.605Z,2.20
2018-12-18T19:44:40.099Z,2.20
2018-12-18T19:47:07.564Z,2.20
2018-12-18T19:49:35.028Z,2.20
2018-12-18T19:52:02.496Z,2.20
2018-12-18T19:54:29.967Z,2.10
2018-12-18T19:56:57.465Z,2.10
2018-12-18T19:59:24.931Z,2.10
2018-12-18T20:01:52.397Z,2.10
2018-12-18T20:04:19.866Z,2.00
2018-12-18T20:06:47.358Z,1.90
2018-12-18T20:09:14.853Z,1.90
2018-12-18T20:11:42.351Z,1.80
2018-12-18T20:14:09.828Z,1.90
2018-12-18T20:16:37.314Z,1.90
2018-12-18T20:19:04.839Z,1.80
2018-12-18T20:21:32.298Z,1.70
2018-12-18T20:23:59.818Z,1.70
2018-12-18T20:26:27.317Z,1.60
2018-12-18T20:28:54.783Z,1.70
2018-12-18T20:31:22.249Z,1.70
2018-12-18T20:33:49.720Z,1.60
2018-12-18T20:36:17.217Z,1.50
2018-12-18T20:38:44.720Z,1.50
2018-12-18T20:41:12.196Z,1.50
2018-12-18T20:43:39.677Z,1.40
2018-12-18T20:46:07.172Z,1.40
2018-12-18T20:48:34.639Z,1.50
2018-12-18T20:51:02.115Z,1.50
2018-12-18T20:53:30.261Z,1.50
2018-12-18T20:55:57.880Z,1.50
2018-12-18T20:58:25.346Z,1.60
2018-12-18T21:00:52.809Z,1.70
2018-12-18T21:03:20.270Z,1.60
2018-12-18T21:05:47.733Z,1.50
2018-12-18T21:08:15.194Z,1.50
2018-12-18T21:10:42.684Z,1.50
2018-12-18T21:13:29.312Z,1.40
2018-12-18T21:15:57.108Z,1.40
2018-12-18T21:18:24.603Z,1.40
2018-12-18T21:20:52.137Z,1.30
2018-12-18T21:23:19.722Z,1.30
2018-12-18T21:25:47.195Z,1.30
2018-12-18T21:28:14.656Z,1.20
2018-12-18T21:30:42.173Z,1.10
2018-12-18T21:33:09.712Z,1.00
2018-12-18T21:35:37.187Z,1.10
2018-12-18T21:38:04.649Z,1.20
2018-12-18T21:40:32.107Z,1.30
2018-12-18T21:42:59.575Z,1.30
2018-12-18T21:45:27.038Z,1.40
2018-12-18T21:47:54.503Z,1.20
2018-12-18T21:50:22.021Z,1.30
2018-12-18T21:52:49.500Z,1.30
2018-12-18T21:55:16.957Z,1.10
2018-12-18T21:57:44.432Z,1.10
2018-12-18T22:00:12.643Z,1.10
2018-12-18T22:02:40.287Z,1.00
2018-12-18T22:05:07.764Z,1.00
2018-12-18T22:07:35.224Z,0.90
2018-12-18T22:10:03.436Z,0.90
2018-12-18T22:12:30.910Z,0.80
2018-12-18T22:14:58.366Z,0.80
2018-12-18T22:17:25.831Z,0.90
2018-12-18T22:19:53.289Z,0.80
2018-12-18T22:22:20.744Z,0.90
2018-12-18T22:24:48.308Z,0.90
2018-12-18T22:27:15.762Z,0.80
2018-12-18T22:29:43.340Z,0.90
2018-12-18T22:32:10.811Z,0.80
2018-12-18T22:34:38.406Z,1.00
2018-12-18T22:37:05.862Z,0.90
2018-12-18T22:39:33.327Z,0.90
2018-12-18T22:42:00.786Z,0.90
2018-12-18T22:44:28.259Z,1.00
2018-12-18T22:46:55.720Z,1.00
2018-12-18T22:49:23.191Z,0.90
2018-12-18T22:51:50.714Z,0.90
2018-12-18T22:54:18.191Z,0.90
2018-12-18T22:56:45.651Z,0.90
2018-12-18T22:59:13.106Z,0.80
2018-12-18T23:01:44.742Z,0.90
2018-12-18T23:04:13.568Z,0.80
2018-12-18T23:06:41.037Z,0.60
2018-12-18T23:09:10.440Z,0.40
2018-12-18T23:11:37.932Z,0.50
2018-12-18T23:14:05.453Z,0.50
2018-12-18T23:16:32.959Z,0.50
2018-12-18T23:19:00.415Z,0.60
2018-12-18T23:21:27.908Z,0.70
2018-12-18T23:23:55.393Z,0.70
2018-12-18T23:26:22.867Z,0.70
2018-12-18T23:28:50.331Z,0.70
2018-12-18T23:31:17.794Z,0.60
2018-12-18T23:33:45.258Z,0.70
2018-12-18T23:36:12.730Z,0.90
2018-12-18T23:38:40.184Z,0.80
2018-12-18T23:41:07.650Z,0.70
2018-12-18T23:43:35.115Z,0.70
2018-12-18T23:46:02.619Z,0.90
2018-12-18T23:48:30.211Z,0.90
2018-12-18T23:50:57.679Z,1.00
2018-12-18T23:53:25.171Z,0.90
2018-12-18T23:55:52.634Z,0.90
2018-12-18T23:58:20.103Z,0.20
